Munnerlyn, Georgia
Current Conditions -  °F | °C
As of 2:53 AM on Monday 26 Jan 2015 (Local Time) from KAGS Reporting Station
Broken Clouds Broken Clouds  
Wind Chill: 43°   Ceiling: 9000
Heat Index: 48°   Visibility: 10mi
Dew Point: 39°   Wind: 13mph
Humidity: 71%   Direction: 250°WSW
Pressure: 29.72"   Gusts: NA
Location:  33.0894°N, 81.978°W
Report Text: KAGS 260753Z AUTO 25011KT 10SM BKN090 BKN110 09/04 A2972 RMK AO2 SLP064 T00890039
Loading
Personal Weather Stations






























Interactive Weather Map New forecast layout! Learn more

10-Day Weather Forecast

Advertisements
Track Severe Weather on mobile